createdAt,value
2022-08-09T00:02:28.610Z,20.41
2022-08-09T00:05:03.142Z,20.45
2022-08-09T00:07:44.713Z,20.37
2022-08-09T00:10:18.015Z,20.36
2022-08-09T00:12:51.747Z,20.25
2022-08-09T00:15:20.415Z,20.22
2022-08-09T00:18:05.340Z,20.28
2022-08-09T00:20:42.099Z,20.25
2022-08-09T00:23:56.395Z,20.27
2022-08-09T00:26:05.234Z,20.36
2022-08-09T00:28:34.710Z,20.39
2022-08-09T00:31:09.298Z,20.40
2022-08-09T00:33:53.610Z,20.43
2022-08-09T00:36:21.184Z,20.33
2022-08-09T00:38:50.645Z,20.39
2022-08-09T00:44:14.247Z,20.24
2022-08-09T00:44:24.690Z,20.15
2022-08-09T00:47:05.109Z,20.15
2022-08-09T00:49:33.790Z,20.17
2022-08-09T00:52:02.177Z,20.03
2022-08-09T00:54:35.312Z,20.03
2022-08-09T00:57:10.143Z,20.03
2022-08-09T00:59:41.649Z,20.06
2022-08-09T01:02:14.661Z,20.04
2022-08-09T01:04:55.194Z,20.10
2022-08-09T01:07:37.884Z,20.18
2022-08-09T01:10:30.492Z,20.25
2022-08-09T01:13:17.841Z,20.28
2022-08-09T01:15:52.076Z,20.32
2022-08-09T01:18:30.378Z,20.35
2022-08-09T01:21:17.033Z,20.34
2022-08-09T01:24:04.967Z,20.44
2022-08-09T01:26:32.111Z,20.43
2022-08-09T01:28:59.868Z,20.46
2022-08-09T01:32:29.899Z,20.40
2022-08-09T01:34:17.426Z,20.43
2022-08-09T01:36:46.599Z,20.42
2022-08-09T01:39:16.697Z,20.39
2022-08-09T01:41:56.010Z,20.37
2022-08-09T01:44:29.399Z,20.37
2022-08-09T01:46:59.943Z,20.38
2022-08-09T01:49:38.705Z,20.39
2022-08-09T01:52:09.417Z,20.44
2022-08-09T01:54:38.629Z,20.44
2022-08-09T01:57:12.067Z,20.59
2022-08-09T01:59:51.486Z,20.57
2022-08-09T02:02:30.980Z,20.57
2022-08-09T02:05:04.655Z,20.37
2022-08-09T02:08:39.295Z,20.29
2022-08-09T02:10:31.171Z,20.25
2022-08-09T02:13:05.373Z,20.21
2022-08-09T02:15:49.507Z,20.08
2022-08-09T02:18:19.783Z,19.67
2022-08-09T02:20:51.120Z,19.62
2022-08-09T02:23:20.552Z,19.64
2022-08-09T02:25:55.890Z,19.56
2022-08-09T02:28:27.327Z,19.50
2022-08-09T02:30:57.803Z,19.47
2022-08-09T02:33:58.431Z,19.47
2022-08-09T02:36:18.519Z,19.27
2022-08-09T02:38:49.000Z,19.15
2022-08-09T02:41:18.362Z,18.99
2022-08-09T02:43:54.837Z,18.88
2022-08-09T02:46:24.728Z,18.89
2022-08-09T02:48:52.312Z,18.82
2022-08-09T02:51:22.772Z,18.78
2022-08-09T02:54:00.400Z,18.80
2022-08-09T02:56:30.488Z,18.54
2022-08-09T02:58:59.744Z,18.26
2022-08-09T03:01:29.290Z,18.07
2022-08-09T03:04:16.603Z,18.08
2022-08-09T03:06:46.140Z,18.04
2022-08-09T03:09:17.848Z,18.10
2022-08-09T03:12:06.598Z,18.03
2022-08-09T03:14:33.056Z,17.91
2022-08-09T03:17:01.564Z,17.91
2022-08-09T03:19:58.931Z,17.63
2022-08-09T03:22:24.851Z,17.57
2022-08-09T03:25:06.722Z,17.53
2022-08-09T03:27:47.483Z,17.40
2022-08-09T03:30:30.254Z,17.30
2022-08-09T03:33:01.521Z,17.25
2022-08-09T03:36:13.892Z,17.25
2022-08-09T03:38:28.811Z,17.21
2022-08-09T03:40:56.177Z,17.24
2022-08-09T03:43:23.096Z,17.26
2022-08-09T03:46:04.065Z,17.22
2022-08-09T03:48:42.974Z,17.17
2022-08-09T03:51:55.456Z,17.21
2022-08-09T03:54:10.701Z,17.27
2022-08-09T03:56:41.109Z,17.29
2022-08-09T03:59:17.004Z,17.42
2022-08-09T04:01:44.382Z,17.40
2022-08-09T04:04:14.531Z,17.49
2022-08-09T04:06:48.692Z,17.47
2022-08-09T04:09:44.496Z,17.48
2022-08-09T04:12:30.871Z,17.55
2022-08-09T04:15:02.010Z,17.53
2022-08-09T04:17:39.371Z,17.57
2022-08-09T04:20:10.952Z,17.51
2022-08-09T04:22:41.381Z,17.61
2022-08-09T04:25:13.019Z,17.66
2022-08-09T04:27:46.686Z,17.83
2022-08-09T04:30:18.101Z,17.78
2022-08-09T04:32:47.859Z,17.82
2022-08-09T04:35:15.360Z,17.81
2022-08-09T04:37:46.349Z,17.83
2022-08-09T04:40:18.992Z,17.80
2022-08-09T04:42:56.725Z,17.86
2022-08-09T04:45:24.015Z,17.79
2022-08-09T04:48:00.257Z,17.75
2022-08-09T04:50:33.696Z,17.86
2022-08-09T04:53:13.478Z,17.92
2022-08-09T04:55:52.781Z,17.92
2022-08-09T04:58:31.692Z,17.98
2022-08-09T05:01:00.147Z,18.01
2022-08-09T05:03:40.412Z,17.97
2022-08-09T05:06:11.779Z,18.00
2022-08-09T05:08:49.101Z,17.99
2022-08-09T05:11:16.409Z,18.11
2022-08-09T05:13:43.840Z,18.14
2022-08-09T05:16:10.711Z,18.14
2022-08-09T05:18:58.337Z,18.17
2022-08-09T05:21:30.082Z,18.25
2022-08-09T05:24:05.433Z,18.28
2022-08-09T05:26:45.435Z,18.25
2022-08-09T05:29:17.812Z,18.25
2022-08-09T05:31:56.804Z,18.36
2022-08-09T05:34:31.358Z,18.35
2022-08-09T05:37:01.694Z,18.31
2022-08-09T05:39:36.169Z,18.31
2022-08-09T05:42:09.984Z,18.38
2022-08-09T05:44:45.035Z,18.26
2022-08-09T05:47:17.443Z,18.32
2022-08-09T05:50:26.652Z,18.37
2022-08-09T05:52:31.810Z,18.44
2022-08-09T05:55:02.966Z,18.49
2022-08-09T05:57:53.800Z,18.62
2022-08-09T06:00:23.055Z,18.82
2022-08-09T06:02:54.189Z,18.72
2022-08-09T06:05:50.616Z,18.74
2022-08-09T06:08:09.236Z,18.91
2022-08-09T06:10:38.258Z,19.02
2022-08-09T06:13:18.187Z,19.12
2022-08-09T06:15:47.599Z,19.08
2022-08-09T06:18:19.528Z,19.10
2022-08-09T06:20:54.916Z,19.40
2022-08-09T06:23:57.777Z,19.34
2022-08-09T06:26:13.488Z,19.41
2022-08-09T06:28:43.509Z,19.36
2022-08-09T06:31:11.249Z,19.54
2022-08-09T06:33:41.552Z,19.55
2022-08-09T06:36:09.484Z,19.57
2022-08-09T06:38:47.313Z,19.80
2022-08-09T06:41:18.636Z,19.87
2022-08-09T06:43:47.103Z,20.07
2022-08-09T06:46:39.000Z,20.21
2022-08-09T06:49:01.514Z,20.40
2022-08-09T06:51:28.391Z,20.59
2022-08-09T06:53:55.560Z,20.90
2022-08-09T06:56:32.097Z,21.26
2022-08-09T07:00:50.099Z,21.57
2022-08-09T07:01:54.187Z,21.86
2022-08-09T07:04:26.882Z,22.15
2022-08-09T07:07:00.499Z,21.98
2022-08-09T07:09:56.122Z,22.04
2022-08-09T07:12:17.838Z,22.51
2022-08-09T07:14:50.774Z,22.50
2022-08-09T07:17:20.127Z,22.83
2022-08-09T07:19:50.995Z,22.89
2022-08-09T07:22:34.255Z,22.91
2022-08-09T07:25:05.589Z,22.99
2022-08-09T07:27:42.911Z,22.95
2022-08-09T07:30:21.708Z,23.24
2022-08-09T07:32:51.789Z,23.12
2022-08-09T07:35:19.454Z,23.07
2022-08-09T07:37:48.065Z,22.86
2022-08-09T07:42:55.800Z,22.73
2022-08-09T07:45:40.416Z,22.53
2022-08-09T07:48:28.605Z,22.67
2022-08-09T07:51:10.032Z,22.94
2022-08-09T07:54:05.671Z,23.15
2022-08-09T07:56:34.369Z,23.11
2022-08-09T07:59:12.346Z,23.14
2022-08-09T08:01:39.799Z,23.19
2022-08-09T08:06:55.614Z,22.75
2022-08-09T08:09:35.426Z,22.84
2022-08-09T08:12:28.028Z,23.05
2022-08-09T08:14:56.902Z,23.14
2022-08-09T08:17:34.986Z,23.38
2022-08-09T08:20:12.595Z,23.99
2022-08-09T08:22:40.986Z,24.17
2022-08-09T08:25:13.128Z,24.65
2022-08-09T08:27:40.982Z,24.83
2022-08-09T08:30:11.089Z,23.97
2022-08-09T08:32:52.665Z,24.10
2022-08-09T08:35:22.549Z,24.44
2022-08-09T08:38:04.459Z,24.57
2022-08-09T08:40:39.036Z,24.29
2022-08-09T08:43:13.322Z,23.73
2022-08-09T08:46:09.864Z,23.70
2022-08-09T08:48:51.735Z,23.90
2022-08-09T08:51:21.265Z,24.12
2022-08-09T08:54:03.320Z,23.76
2022-08-09T08:56:38.175Z,24.03
2022-08-09T08:59:20.072Z,24.50
2022-08-09T09:01:53.290Z,24.19
2022-08-09T09:04:27.740Z,24.52
2022-08-09T09:06:57.128Z,24.36
2022-08-09T09:09:58.189Z,24.58
2022-08-09T09:12:18.794Z,25.17
2022-08-09T09:14:46.822Z,24.81
2022-08-09T09:17:16.415Z,25.19
2022-08-09T09:19:44.331Z,25.33
2022-08-09T09:22:15.831Z,25.54
2022-08-09T09:24:47.497Z,25.75
2022-08-09T09:28:04.363Z,25.59
2022-08-09T09:30:26.230Z,25.85
2022-08-09T09:33:16.252Z,25.15
2022-08-09T09:36:01.744Z,24.69
2022-08-09T09:38:44.915Z,24.39
2022-08-09T09:41:25.034Z,24.47
2022-08-09T09:44:12.821Z,25.12
2022-08-09T09:46:51.274Z,25.06
2022-08-09T09:49:32.191Z,25.00
2022-08-09T09:52:33.341Z,24.94
2022-08-09T09:55:16.027Z,24.56
2022-08-09T09:58:03.578Z,24.86
2022-08-09T10:00:44.114Z,25.22
2022-08-09T10:03:43.911Z,25.57
2022-08-09T10:06:12.558Z,25.50
2022-08-09T10:08:54.560Z,25.25
2022-08-09T10:11:59.572Z,25.38
2022-08-09T10:14:33.105Z,25.10
2022-08-09T10:17:40.649Z,25.18
2022-08-09T10:20:01.725Z,25.57
2022-08-09T10:22:32.705Z,25.15
2022-08-09T10:25:07.016Z,25.33
2022-08-09T10:27:55.783Z,25.52
2022-08-09T10:33:29.698Z,25.41
2022-08-09T10:36:00.881Z,25.51
2022-08-09T10:38:54.881Z,25.57
2022-08-09T10:41:15.844Z,25.43
2022-08-09T10:43:50.624Z,25.57
2022-08-09T10:46:33.720Z,25.54
2022-08-09T10:49:18.989Z,25.88
2022-08-09T10:51:55.604Z,26.43
2022-08-09T10:54:25.751Z,26.57
2022-08-09T10:57:10.341Z,25.83
2022-08-09T10:59:55.736Z,25.53
2022-08-09T11:03:27.797Z,25.72
2022-08-09T11:05:30.503Z,26.14
2022-08-09T11:08:18.072Z,26.04
2022-08-09T11:11:08.998Z,26.27
2022-08-09T11:13:49.891Z,25.74
2022-08-09T11:16:41.495Z,25.95
2022-08-09T11:19:10.290Z,26.44
2022-08-09T11:21:55.006Z,26.84
2022-08-09T11:24:51.514Z,27.18
2022-08-09T11:28:04.669Z,27.25
2022-08-09T11:30:32.464Z,27.01
2022-08-09T11:33:06.107Z,27.03
2022-08-09T11:35:50.011Z,27.55
2022-08-09T11:38:22.388Z,27.19
2022-08-09T11:40:50.199Z,27.82
2022-08-09T11:43:27.546Z,28.37
2022-08-09T11:46:03.767Z,28.70
2022-08-09T11:48:32.285Z,27.87
2022-08-09T11:52:56.691Z,27.06
2022-08-09T11:54:11.440Z,26.66
2022-08-09T11:56:47.814Z,27.10
2022-08-09T11:59:30.516Z,27.45
2022-08-09T12:02:16.192Z,27.92
2022-08-09T12:04:45.815Z,27.48
2022-08-09T12:07:14.278Z,27.67
2022-08-09T12:09:50.829Z,27.95
2022-08-09T12:12:28.812Z,28.25
2022-08-09T12:15:07.465Z,28.18
2022-08-09T12:17:44.352Z,27.45
2022-08-09T12:20:19.796Z,27.46
2022-08-09T12:22:56.878Z,27.51
2022-08-09T12:25:31.922Z,27.64
2022-08-09T12:28:58.634Z,28.09
2022-08-09T12:31:59.181Z,27.87
2022-08-09T12:34:04.546Z,28.06
2022-08-09T12:36:33.782Z,27.83
2022-08-09T12:39:04.295Z,27.75
2022-08-09T12:41:39.232Z,28.10
2022-08-09T12:44:09.666Z,27.92
2022-08-09T12:46:39.887Z,28.04
2022-08-09T12:49:08.844Z,28.58
2022-08-09T12:52:00.656Z,28.76
2022-08-09T12:54:23.877Z,29.02
2022-08-09T12:56:53.846Z,29.01
2022-08-09T12:59:57.974Z,28.56
2022-08-09T13:02:12.091Z,28.57
2022-08-09T13:04:42.137Z,28.80
2022-08-09T13:07:14.448Z,29.06
2022-08-09T13:09:48.192Z,29.04
2022-08-09T13:12:23.227Z,28.56
2022-08-09T13:14:54.184Z,28.40
2022-08-09T13:18:02.841Z,28.93
2022-08-09T13:20:16.230Z,28.94
2022-08-09T13:23:01.192Z,28.92
2022-08-09T13:25:42.497Z,29.40
2022-08-09T13:28:11.371Z,29.46
2022-08-09T13:32:12.576Z,29.16
2022-08-09T13:33:53.263Z,28.77
2022-08-09T13:36:41.667Z,28.83
2022-08-09T13:41:19.499Z,28.77
2022-08-09T13:42:12.442Z,28.65
2022-08-09T13:44:43.251Z,29.35
2022-08-09T13:47:25.234Z,28.74
2022-08-09T13:50:03.921Z,28.72
2022-08-09T13:52:40.164Z,28.79
2022-08-09T13:55:13.804Z,29.05
2022-08-09T13:57:43.331Z,29.69
2022-08-09T14:00:13.222Z,29.26
2022-08-09T14:03:03.016Z,28.84
2022-08-09T14:05:58.427Z,29.06
2022-08-09T14:08:18.996Z,29.19
2022-08-09T14:10:51.952Z,29.50
2022-08-09T14:14:15.076Z,29.28
2022-08-09T14:16:15.774Z,29.61
2022-08-09T14:18:50.422Z,29.00
2022-08-09T14:21:22.230Z,29.37
2022-08-09T14:23:56.552Z,29.01
2022-08-09T14:26:32.601Z,29.35
2022-08-09T14:29:07.875Z,29.16
2022-08-09T14:31:54.229Z,28.81
2022-08-09T14:34:27.361Z,29.11
2022-08-09T14:37:08.965Z,29.58
2022-08-09T14:39:47.134Z,29.10
2022-08-09T14:42:40.720Z,29.33
2022-08-09T14:46:54.155Z,28.99
2022-08-09T14:47:58.459Z,28.37
2022-08-09T14:50:28.158Z,28.53
2022-08-09T14:52:55.114Z,28.56
2022-08-09T14:55:22.245Z,29.02
2022-08-09T14:57:49.695Z,28.60
2022-08-09T15:00:17.094Z,28.57
2022-08-09T15:02:47.693Z,28.78
2022-08-09T15:05:19.730Z,28.70
2022-08-09T15:07:56.613Z,29.13
2022-08-09T15:10:29.301Z,29.01
2022-08-09T15:12:59.327Z,28.66
2022-08-09T15:15:28.822Z,28.65
2022-08-09T15:17:58.465Z,28.79
2022-08-09T15:21:56.201Z,29.20
2022-08-09T15:24:00.603Z,29.03
2022-08-09T15:25:59.830Z,28.93
2022-08-09T15:28:28.419Z,28.99
2022-08-09T15:31:07.418Z,28.79
2022-08-09T15:34:18.415Z,28.97
2022-08-09T15:36:28.881Z,28.03
2022-08-09T15:39:00.165Z,27.95
2022-08-09T15:41:31.224Z,28.56
2022-08-09T15:44:02.453Z,28.76
2022-08-09T15:46:32.943Z,29.21
2022-08-09T15:49:22.732Z,28.33
2022-08-09T15:52:03.738Z,28.14
2022-08-09T15:54:46.204Z,28.39
2022-08-09T15:57:36.013Z,28.70
2022-08-09T16:00:11.028Z,29.69
2022-08-09T16:02:42.468Z,29.96
2022-08-09T16:05:16.121Z,29.07
2022-08-09T16:07:45.969Z,28.69
2022-08-09T16:10:56.006Z,28.59
2022-08-09T16:13:20.759Z,28.63
2022-08-09T16:16:11.625Z,28.39
2022-08-09T16:18:44.699Z,28.82
2022-08-09T16:21:17.360Z,28.41
2022-08-09T16:23:54.838Z,29.02
2022-08-09T16:26:34.610Z,30.04
2022-08-09T16:29:10.781Z,30.32
2022-08-09T16:32:18.617Z,30.08
2022-08-09T16:34:54.872Z,29.74
2022-08-09T16:37:18.039Z,30.30
2022-08-09T16:40:02.695Z,30.35
2022-08-09T16:42:32.418Z,30.31
2022-08-09T16:44:59.325Z,31.04
2022-08-09T16:48:42.196Z,30.76
2022-08-09T16:50:31.085Z,30.18
2022-08-09T16:53:00.999Z,29.82
2022-08-09T16:55:44.442Z,30.07
2022-08-09T16:58:17.075Z,29.66
2022-08-09T17:00:46.380Z,29.83
2022-08-09T17:03:20.877Z,29.50
2022-08-09T17:06:06.615Z,29.06
2022-08-09T17:08:43.202Z,29.71
2022-08-09T17:11:15.298Z,29.30
2022-08-09T17:13:44.941Z,29.74
2022-08-09T17:16:12.240Z,29.34
2022-08-09T17:18:39.309Z,29.38
2022-08-09T17:21:06.210Z,29.25
2022-08-09T17:24:20.792Z,29.10
2022-08-09T17:26:31.588Z,28.92
2022-08-09T17:29:04.939Z,28.39
2022-08-09T17:31:49.658Z,27.66
2022-08-09T17:35:00.984Z,27.25
2022-08-09T17:37:29.689Z,27.13
2022-08-09T17:39:56.814Z,27.04
2022-08-09T17:42:41.590Z,26.93
2022-08-09T17:45:16.128Z,26.88
2022-08-09T17:48:02.628Z,26.80
2022-08-09T17:50:37.188Z,26.72
2022-08-09T17:53:19.233Z,26.67
2022-08-09T17:55:50.271Z,26.59
2022-08-09T17:58:19.261Z,26.53
2022-08-09T18:00:48.019Z,26.48
2022-08-09T18:03:17.660Z,26.36
2022-08-09T18:05:45.386Z,26.34
2022-08-09T18:08:22.261Z,26.27
2022-08-09T18:11:01.499Z,26.21
2022-08-09T18:13:40.102Z,26.05
2022-08-09T18:16:17.274Z,25.92
2022-08-09T18:18:56.682Z,25.85
2022-08-09T18:21:24.383Z,25.91
2022-08-09T18:24:11.440Z,25.92
2022-08-09T18:26:46.688Z,25.84
2022-08-09T18:30:39.093Z,25.67
2022-08-09T18:32:05.967Z,25.38
2022-08-09T18:34:35.696Z,25.55
2022-08-09T18:37:03.570Z,25.59
2022-08-09T18:39:32.733Z,25.49
2022-08-09T18:42:01.866Z,25.46
2022-08-09T18:44:29.197Z,25.37
2022-08-09T18:47:05.140Z,25.18
2022-08-09T18:49:43.851Z,25.11
2022-08-09T18:52:15.919Z,25.08
2022-08-09T18:54:52.680Z,24.98
2022-08-09T18:57:21.947Z,25.13
2022-08-09T18:59:55.122Z,25.07
2022-08-09T19:02:32.237Z,24.89
2022-08-09T19:05:04.187Z,24.83
2022-08-09T19:07:43.300Z,24.64
2022-08-09T19:10:29.500Z,24.45
2022-08-09T19:13:20.388Z,24.33
2022-08-09T19:15:55.709Z,24.20
2022-08-09T19:18:37.397Z,24.22
2022-08-09T19:21:09.642Z,24.14
2022-08-09T19:24:37.091Z,24.13
2022-08-09T19:26:29.547Z,24.06
2022-08-09T19:29:09.431Z,23.96
2022-08-09T19:31:45.678Z,23.80
2022-08-09T19:34:21.650Z,23.79
2022-08-09T19:36:54.222Z,23.75
2022-08-09T19:39:43.818Z,23.75
2022-08-09T19:42:08.867Z,23.69
2022-08-09T19:44:36.998Z,23.62
2022-08-09T19:47:04.221Z,23.56
2022-08-09T19:50:06.829Z,23.53
2022-08-09T19:52:18.372Z,23.48
2022-08-09T19:54:45.509Z,23.38
2022-08-09T19:57:12.525Z,23.42
2022-08-09T20:00:02.438Z,23.39
2022-08-09T20:04:08.420Z,23.48
2022-08-09T20:05:16.467Z,23.52
2022-08-09T20:07:59.398Z,23.45
2022-08-09T20:10:34.341Z,23.39
2022-08-09T20:13:05.096Z,23.42
2022-08-09T20:16:33.028Z,23.50
2022-08-09T20:18:19.716Z,23.51
2022-08-09T20:20:47.316Z,23.53
2022-08-09T20:23:19.581Z,23.51
2022-08-09T20:25:52.509Z,23.48
2022-08-09T20:28:27.557Z,23.50
2022-08-09T20:30:54.885Z,23.49
2022-08-09T20:33:22.283Z,23.55
2022-08-09T20:35:51.714Z,23.53
2022-08-09T20:38:33.183Z,23.51
2022-08-09T20:41:06.725Z,23.41
2022-08-09T20:43:33.623Z,23.39
2022-08-09T20:46:42.404Z,23.47
2022-08-09T20:48:48.591Z,23.55
2022-08-09T20:51:19.643Z,23.54
2022-08-09T20:53:46.886Z,23.69
2022-08-09T20:56:21.001Z,23.76
2022-08-09T20:58:54.579Z,23.80
2022-08-09T21:01:34.954Z,23.77
2022-08-09T21:05:51.828Z,23.79
2022-08-09T21:06:59.828Z,23.94
2022-08-09T21:09:46.110Z,23.93
2022-08-09T21:12:23.168Z,23.82
2022-08-09T21:14:50.341Z,23.76
2022-08-09T21:18:23.476Z,23.68
2022-08-09T21:20:22.750Z,23.88
2022-08-09T21:22:54.204Z,23.90
2022-08-09T21:25:43.975Z,23.97
2022-08-09T21:28:34.720Z,24.01
2022-08-09T21:31:16.649Z,24.11
2022-08-09T21:33:56.622Z,24.06
2022-08-09T21:36:28.158Z,24.01
2022-08-09T21:38:57.448Z,24.11
2022-08-09T21:42:03.937Z,24.32
2022-08-09T21:44:33.080Z,24.41
2022-08-09T21:47:07.439Z,24.43
2022-08-09T21:49:39.321Z,24.44
2022-08-09T21:52:14.821Z,24.39
2022-08-09T21:55:02.858Z,24.43
2022-08-09T21:57:38.153Z,24.45
2022-08-09T22:00:32.278Z,24.39
2022-08-09T22:03:01.297Z,24.36
2022-08-09T22:05:36.074Z,24.46
2022-08-09T22:08:06.239Z,24.32
2022-08-09T22:10:33.301Z,24.38
2022-08-09T22:13:07.332Z,24.44
2022-08-09T22:15:38.442Z,24.48
2022-08-09T22:18:12.149Z,24.42
2022-08-09T22:20:40.335Z,24.32
2022-08-09T22:23:10.645Z,24.33
2022-08-09T22:26:05.378Z,24.24
2022-08-09T22:28:32.414Z,24.23
2022-08-09T22:31:00.993Z,24.32
2022-08-09T22:33:42.442Z,24.32
2022-08-09T22:36:19.388Z,24.39
2022-08-09T22:38:46.830Z,24.40
2022-08-09T22:41:13.719Z,24.40
2022-08-09T22:44:01.221Z,24.41
2022-08-09T22:48:17.816Z,24.36
2022-08-09T22:49:14.607Z,24.36
2022-08-09T22:51:49.225Z,24.41
2022-08-09T22:54:21.391Z,24.43
2022-08-09T22:56:50.853Z,24.42
2022-08-09T22:59:55.325Z,24.35
2022-08-09T23:02:11.094Z,24.38
2022-08-09T23:04:43.950Z,24.42
2022-08-09T23:08:22.311Z,24.40
2022-08-09T23:10:27.432Z,24.43
2022-08-09T23:12:54.464Z,24.44
2022-08-09T23:15:21.433Z,24.41
2022-08-09T23:17:48.642Z,24.41
2022-08-09T23:20:15.553Z,24.42
2022-08-09T23:22:42.528Z,24.44
2022-08-09T23:25:11.057Z,24.40
2022-08-09T23:27:57.895Z,24.40
2022-08-09T23:30:24.842Z,24.38
2022-08-09T23:32:51.702Z,24.36
2022-08-09T23:35:18.646Z,24.35
2022-08-09T23:37:45.511Z,24.33
2022-08-09T23:40:12.654Z,24.30
2022-08-09T23:42:40.534Z,24.33
2022-08-09T23:45:08.129Z,24.33
2022-08-09T23:47:35.855Z,24.28
2022-08-09T23:50:02.708Z,24.26
2022-08-09T23:52:29.528Z,24.29
2022-08-09T23:54:57.862Z,24.28
2022-08-09T23:57:24.693Z,24.22
